Terrace Airport
CYXT : rendu visible

Aérodrome :











RETROUVEZ-NOUS SUR...

 
LOGIN :

S'inscrire | Disclaimer

   EN    FR    IT 

 









Légende :    VFR   VFR Marginal   IFR   IFR Intensif   IFR Très Intensif
Visi : 
Plafond : 
>= 8 km
>= 3000ft
5 à 8 km
1000 à 3000 ft
1500m à 5 km
500 à 1000 ft
800 à 1500m
200 à 500 ft
< 800m
< 200 ft
Symboles :   Orages  Brouillard  Fortes neiges  Fortes précipitations  Vent > 20 kt






- Altitude de l'aérodrome : 713 ft
- Code IATA : YXT


CYXT - Terrace

DERNIER METAR :
  • 210826Z 00000KT 1/2SM FG OVC100 01/01 A3000 RMK FG7AC1 SLP169

METARs EXPIRÉS :
  • 210800Z 13003KT 1/8SM FG VV001 01/01 A3000 RMK FG8 SLP170
  • 210700Z 00000KT 1/8SM FG VV001 01/01 A3001 RMK FG8 SLP175
  • 210628Z 07003KT 050V160 1/4SM FZFG VV001 M00/M00 A3002 RMK FG8 SLP177
  • 210600Z VRB02KT 1/2SM FG VV002 01/00 A3002 RMK FG8 SLP178

TAF TAF CYXT
Valide du 21 à 07h jusqu'au 21 à 19h UTC


210647Z 2107/2119 VRB03KT 1/4SM FZFG VV001
FM211700 02005KT 1/2SM FG VV002
TEMPO 2117/2119 2SM BR SCT002 BKN005 OVC100 RMK NXT FCST BY 211300Z



MET'MAP, la Météo Aéronautique d'un coup d'oeil ! - Copyright ORBIFLY Décembre 2007 - Disclaimer

ORBIFLY MET'MAP TEAM :

Programmation & Développement : Alexandra Zaïnal
Conception & Développement : Baudouin d'Aumeries
Co-Programmation & Développement : Marc-Olivier Méhu
Soutien technique & logistique : Manuel Goepfert

Contact : metmap@orbifly.com




SOURCES & CREDITS :

   NOAA       Earth
Advisory